Time;durP1;ratioP1;P1;durP2;ratioP2;P2;SDS_P1;SDS_P2;PMS_P1;PMS_P2;Temp;Humidity;BMP_temperature;BMP_pressure;BME280_temperature;BME280_humidity;BME280_pressure;Samples;Min_cycle;Max_cycle;Signal;HPM_P1;HPM_P2
2023/01/30 00:00:51;;;;;;;;;31.67;27.00;;;;;8.55;100.00;102200.66;5017120;28;45628;-73
2023/01/30 00:03:17;;;;;;;;;28.33;28.00;;;;;8.58;100.00;102206.69;5018417;28;45386;-74
2023/01/30 00:05:46;;;;;;;;;26.00;26.00;;;;;8.63;100.00;102201.59;5016167;28;45492;-74
2023/01/30 00:08:12;;;;;;;;;32.67;28.00;;;;;8.61;100.00;102206.38;5001529;28;45627;-73
2023/01/30 00:10:37;;;;;;;;;36.00;27.00;;;;;8.58;100.00;102198.50;5011444;28;48148;-73
2023/01/30 00:13:03;;;;;;;;;21.67;20.67;;;;;8.52;100.00;102190.94;5004598;28;46082;-76
2023/01/30 00:15:28;;;;;;;;;34.00;28.00;;;;;8.57;100.00;102187.72;5005919;28;45525;-72
2023/01/30 00:17:54;;;;;;;;;29.67;25.00;;;;;8.56;100.00;102184.13;5022706;28;45405;-72
2023/01/30 00:20:19;;;;;;;;;26.00;23.33;;;;;8.61;100.00;102180.91;5020250;28;45752;-74
2023/01/30 00:22:44;;;;;;;;;31.67;29.00;;;;;8.59;100.00;102170.13;5013558;28;45670;-74
2023/01/30 00:25:10;;;;;;;;;30.33;26.00;;;;;8.63;100.00;102174.25;5030082;28;45657;-75
2023/01/30 00:27:35;;;;;;;;;32.33;25.67;;;;;8.55;100.00;102157.78;5030790;28;45790;-74
2023/01/30 00:30:04;;;;;;;;;34.00;30.67;;;;;8.65;100.00;102163.16;5032814;28;45590;-75
2023/01/30 00:32:30;;;;;;;;;28.67;24.33;;;;;8.75;100.00;102165.78;5015900;28;45675;-75
2023/01/30 00:34:56;;;;;;;;;28.33;24.00;;;;;8.71;100.00;102151.56;5022996;28;45336;-73
2023/01/30 00:37:21;;;;;;;;;33.00;28.00;;;;;8.73;100.00;102154.16;5033176;28;45765;-74
2023/01/30 00:39:47;;;;;;;;;26.67;22.33;;;;;8.68;100.00;102145.56;5024674;28;45567;-74
2023/01/30 00:47:40;;;;;;;;;30.33;26.33;;;;;8.78;100.00;102146.31;5019297;28;45702;-74
2023/01/30 00:50:06;;;;;;;;;30.00;24.00;;;;;8.78;100.00;102140.84;5033398;28;45344;-73
2023/01/30 00:52:31;;;;;;;;;31.00;23.67;;;;;8.80;100.00;102122.38;5019838;28;45664;-75
2023/01/30 00:54:56;;;;;;;;;30.67;26.00;;;;;8.80;100.00;102125.09;5017584;28;45326;-72
2023/01/30 00:57:22;;;;;;;;;24.67;23.00;;;;;8.81;100.00;102118.63;5022500;28;45649;-74
2023/01/30 00:59:47;;;;;;;;;30.33;22.67;;;;;8.80;100.00;102123.25;5029880;28;46782;-73
2023/01/30 01:02:13;;;;;;;;;27.00;23.67;;;;;8.83;100.00;102122.91;5015632;28;45352;-72
2023/01/30 01:04:44;;;;;;;;;34.33;29.33;;;;;8.95;100.00;102120.75;5033706;28;45358;-72
2023/01/30 01:07:11;;;;;;;;;26.67;23.00;;;;;8.97;100.00;102113.22;5033279;28;45772;-73
2023/01/30 01:09:37;;;;;;;;;25.67;23.67;;;;;8.94;100.00;102113.56;5033306;28;46211;-74
2023/01/30 01:12:03;;;;;;;;;26.33;26.00;;;;;8.92;100.00;102112.00;5032751;28;45777;-73
2023/01/30 01:14:28;;;;;;;;;28.67;25.33;;;;;8.92;100.00;102110.16;5032617;28;45606;-74
2023/01/30 01:16:54;;;;;;;;;26.33;23.33;;;;;8.78;100.00;102077.94;5014471;28;47001;-73
2023/01/30 01:19:19;;;;;;;;;26.00;25.00;;;;;8.92;100.00;102093.72;5021559;28;45446;-73
2023/01/30 01:21:44;;;;;;;;;26.33;21.00;;;;;8.99;100.00;102093.91;5024751;28;45592;-76
2023/01/30 01:24:12;;;;;;;;;27.67;22.67;;;;;9.09;100.00;102093.78;5014031;28;45790;-74
2023/01/30 01:26:38;;;;;;;;;33.67;24.00;;;;;9.12;100.00;102087.97;5019656;28;45366;-72
2023/01/30 01:29:04;;;;;;;;;22.33;21.67;;;;;9.13;100.00;102089.66;5028736;28;46133;-73
2023/01/30 01:31:30;;;;;;;;;23.67;21.00;;;;;9.07;100.00;102093.06;5022100;28;45431;-72
2023/01/30 01:33:56;;;;;;;;;29.67;24.00;;;;;9.08;100.00;102094.81;5014956;28;45806;-73
2023/01/30 01:36:22;;;;;;;;;20.33;16.33;;;;;9.11;100.00;102094.47;5032018;28;45381;-73
2023/01/30 01:38:47;;;;;;;;;24.67;24.00;;;;;9.13;100.00;102085.06;5011613;28;48352;-74
2023/01/30 01:41:16;;;;;;;;;28.67;23.33;;;;;9.12;100.00;102087.97;5010993;28;45747;-75
2023/01/30 01:44:00;;;;;;;;;23.00;21.00;;;;;9.14;100.00;102085.94;5020941;28;45727;-73
2023/01/30 01:46:49;;;;;;;;;27.67;23.00;;;;;9.02;100.00;102079.91;5031136;28;45414;-72
2023/01/30 01:49:27;;;;;;;;;24.67;19.00;;;;;9.07;100.00;102084.88;5013432;28;48273;-74
2023/01/30 01:52:04;;;;;;;;;28.67;21.67;;;;;9.09;100.00;102082.84;5031749;28;45361;-75
2023/01/30 01:54:47;;;;;;;;;23.67;18.33;;;;;9.11;100.00;102094.47;5009870;28;45438;-72
2023/01/30 01:57:19;;;;;;;;;27.00;21.00;;;;;9.08;100.00;102083.84;5026085;28;46052;-74
2023/01/30 02:00:03;;;;;;;;;28.00;23.33;;;;;8.90;100.00;102048.41;5031633;28;46862;-74
2023/01/30 02:02:28;;;;;;;;;26.00;22.00;;;;;9.09;100.00;102071.91;5024142;28;45533;-75
2023/01/30 02:05:01;;;;;;;;;24.33;19.00;;;;;9.16;100.00;102067.44;5031474;28;45536;-74
2023/01/30 02:07:31;;;;;;;;;25.00;23.00;;;;;9.16;100.00;102070.19;5033058;28;45523;-73
2023/01/30 02:09:57;;;;;;;;;25.33;21.00;;;;;9.16;100.00;102062.84;5027812;28;46204;-72
2023/01/30 02:12:24;;;;;;;;;24.00;21.67;;;;;9.17;100.00;102069.16;5033417;28;45800;-72
2023/01/30 02:14:52;;;;;;;;;25.00;22.33;;;;;9.17;100.00;102074.63;5030205;28;45323;-73
2023/01/30 02:17:19;;;;;;;;;23.33;21.33;;;;;9.11;100.00;102076.16;5004968;28;46228;-73
2023/01/30 02:20:16;;;;;;;;;30.00;25.00;;;;;9.11;100.00;102069.84;5031737;28;45760;-73
2023/01/30 02:23:00;;;;;;;;;24.00;23.00;;;;;9.16;100.00;102067.44;5004514;28;45545;-72
2023/01/30 02:25:43;;;;;;;;;25.67;23.33;;;;;9.13;100.00;102068.66;5029811;28;45623;-73
2023/01/30 02:28:30;;;;;;;;;24.33;19.33;;;;;9.11;100.00;102073.41;5025902;28;45686;-74
2023/01/30 02:31:13;;;;;;;;;26.33;22.67;;;;;9.10;100.00;102073.59;5032612;28;45501;-74
2023/01/30 02:33:47;;;;;;;;;28.00;24.00;;;;;9.12;100.00;102064.19;5022730;28;45718;-73
2023/01/30 02:36:33;;;;;;;;;22.67;18.33;;;;;9.18;100.00;102073.63;5022971;28;45382;-73
2023/01/30 02:39:18;;;;;;;;;23.00;20.00;;;;;9.19;100.00;102078.06;4965182;28;45487;-74
2023/01/30 02:41:59;;;;;;;;;21.00;18.67;;;;;9.08;100.00;102057.34;5031171;28;45777;-72
2023/01/30 02:44:42;;;;;;;;;26.33;22.33;;;;;9.20;100.00;102063.34;5017438;28;45804;-72
2023/01/30 02:47:19;;;;;;;;;25.67;18.33;;;;;9.24;100.00;102080.31;5018179;28;45909;-74
2023/01/30 02:49:57;;;;;;;;;31.33;24.00;;;;;9.22;100.00;102077.75;5008656;28;47169;-73
2023/01/30 02:52:23;;;;;;;;;24.67;22.00;;;;;9.23;100.00;102073.13;5031491;28;46652;-72
2023/01/30 02:54:49;;;;;;;;;25.00;23.00;;;;;9.24;100.00;102072.94;5025434;28;45548;-73
2023/01/30 02:57:20;;;;;;;;;26.00;20.00;;;;;9.18;100.00;102066.25;5003516;28;46000;-73
2023/01/30 02:59:50;;;;;;;;;17.67;16.00;;;;;9.23;100.00;102065.75;5016698;28;45509;-73
2023/01/30 03:02:31;;;;;;;;;17.67;15.67;;;;;9.25;100.00;102076.53;5016434;28;48257;-70
2023/01/30 03:05:11;;;;;;;;;25.00;21.00;;;;;9.25;100.00;102071.94;5029935;28;45528;-72
2023/01/30 03:07:47;;;;;;;;;26.00;21.67;;;;;9.28;100.00;102073.47;5004719;28;45414;-73
2023/01/30 03:10:38;;;;;;;;;23.33;18.67;;;;;9.19;100.00;102078.06;5027215;28;45390;-72
2023/01/30 03:13:03;;;;;;;;;26.33;20.33;;;;;9.21;100.00;102078.75;5014523;28;46873;-72
2023/01/30 03:15:34;;;;;;;;;23.50;20.00;;;;;9.17;100.00;102072.75;5026239;28;45629;-71
2023/01/30 03:18:01;;;;;;;;;24.00;21.33;;;;;9.11;100.00;102065.22;5024662;28;45788;-72
2023/01/30 03:20:26;;;;;;;;;26.33;22.67;;;;;9.11;100.00;102075.31;5019872;28;45700;-72
2023/01/30 03:22:53;;;;;;;;;25.33;20.33;;;;;9.07;100.00;102073.91;5032413;28;45319;-73
2023/01/30 03:25:25;;;;;;;;;21.67;19.00;;;;;9.00;100.00;102069.13;5027894;28;45445;-71
2023/01/30 03:27:53;;;;;;;;;29.00;25.00;;;;;9.05;100.00;102076.81;5013049;28;45353;-73
2023/01/30 03:30:19;;;;;;;;;31.33;22.00;;;;;9.08;100.00;102070.16;5028178;28;45365;-73
2023/01/30 03:32:44;;;;;;;;;23.33;21.00;;;;;9.08;100.00;102070.16;5028159;28;45844;-72
2023/01/30 03:35:10;;;;;;;;;26.67;24.33;;;;;9.06;100.00;102067.59;5013394;28;45536;-73
2023/01/30 03:37:37;;;;;;;;;18.33;18.33;;;;;9.09;100.00;102072.75;5024264;28;45589;-70
2023/01/30 03:40:09;;;;;;;;;29.67;23.67;;;;;9.12;100.00;102063.34;5019794;28;45575;-73
2023/01/30 03:42:34;;;;;;;;;27.00;22.00;;;;;8.96;100.00;102045.84;5023564;28;46276;-72
2023/01/30 03:45:00;;;;;;;;;23.33;21.00;;;;;9.07;100.00;102041.09;5026372;28;45749;-73
2023/01/30 03:47:26;;;;;;;;;29.00;21.33;;;;;9.10;100.00;102043.47;5034217;28;46155;-71
2023/01/30 03:49:51;;;;;;;;;22.33;20.00;;;;;9.07;100.00;102046.56;5015890;28;45689;-71
2023/01/30 03:52:17;;;;;;;;;24.00;19.00;;;;;9.08;100.00;102054.59;5018322;28;46163;-74
2023/01/30 03:54:42;;;;;;;;;24.00;20.00;;;;;9.02;100.00;102047.91;5033503;28;45444;-72
2023/01/30 03:57:07;;;;;;;;;21.33;18.33;;;;;8.96;100.00;102061.41;5023900;28;45425;-74
2023/01/30 03:59:33;;;;;;;;;23.67;22.67;;;;;8.78;100.00;102028.69;5018069;28;46207;-75
2023/01/30 04:01:58;;;;;;;;;20.00;16.00;;;;;8.93;100.00;102048.91;5034036;28;46303;-72
2023/01/30 04:04:24;;;;;;;;;21.00;20.33;;;;;8.93;100.00;102048.91;5028122;28;45275;-76
2023/01/30 04:06:49;;;;;;;;;24.33;21.67;;;;;8.84;100.00;102041.69;5034865;28;45778;-72
2023/01/30 04:09:15;;;;;;;;;20.33;20.00;;;;;8.88;100.00;102042.22;5016312;28;46680;-73
2023/01/30 04:11:43;;;;;;;;;25.00;23.00;;;;;8.72;100.00;102032.09;5033908;28;45353;-74
2023/01/30 04:14:09;;;;;;;;;25.00;21.33;;;;;8.74;100.00;102035.50;5021760;28;45698;-73
2023/01/30 04:16:35;;;;;;;;;24.67;21.67;;;;;8.83;100.00;102037.25;5004688;28;45453;-73
2023/01/30 04:19:00;;;;;;;;;26.33;21.00;;;;;8.86;100.00;102031.44;5024288;28;45698;-74
2023/01/30 04:21:27;;;;;;;;;25.00;22.00;;;;;8.87;100.00;102024.94;5009630;28;45960;-73
2023/01/30 04:23:53;;;;;;;;;21.00;19.00;;;;;8.89;100.00;102017.47;5034407;28;45725;-75
2023/01/30 04:26:18;;;;;;;;;30.67;25.67;;;;;8.93;100.00;102018.81;5033228;28;45643;-74
2023/01/30 04:28:44;;;;;;;;;24.67;20.33;;;;;8.93;100.00;102018.81;5028854;28;45552;-72
2023/01/30 04:31:09;;;;;;;;;27.67;23.00;;;;;8.78;100.00;101998.59;5028339;28;46302;-72
2023/01/30 04:33:35;;;;;;;;;21.67;21.00;;;;;8.89;100.00;102016.56;5014776;28;45668;-73
2023/01/30 04:36:03;;;;;;;;;22.00;18.67;;;;;8.83;100.00;102026.28;5025621;28;45491;-72
2023/01/30 04:38:30;;;;;;;;;29.00;23.67;;;;;8.83;100.00;102012.63;5019039;28;45820;-73
2023/01/30 04:40:57;;;;;;;;;23.33;20.33;;;;;8.69;100.00;101988.66;5010628;28;49412;-72
2023/01/30 04:43:24;;;;;;;;;26.67;24.00;;;;;8.88;100.00;102018.47;5023433;28;45689;-73
2023/01/30 04:45:51;;;;;;;;;27.00;22.67;;;;;8.89;100.00;102022.06;5027776;28;45382;-72
2023/01/30 04:48:18;;;;;;;;;25.67;22.00;;;;;8.92;100.00;102016.25;5031647;28;45494;-71
2023/01/30 04:50:47;;;;;;;;;21.67;19.33;;;;;8.81;100.00;101992.78;5008403;28;46390;-72
2023/01/30 04:53:14;;;;;;;;;21.33;19.33;;;;;8.95;100.00;102008.56;5023722;28;45330;-72
2023/01/30 04:55:40;;;;;;;;;25.67;19.33;;;;;9.09;100.00;102014.44;5021003;28;45312;-73
2023/01/30 04:58:05;;;;;;;;;24.67;21.33;;;;;9.05;100.00;102011.16;5019933;28;45943;-75
2023/01/30 05:00:31;;;;;;;;;23.33;20.00;;;;;9.14;100.00;102025.72;5014487;28;45778;-72
2023/01/30 05:02:56;;;;;;;;;22.33;18.67;;;;;9.06;100.00;102007.41;5012047;28;45770;-71
2023/01/30 05:05:23;;;;;;;;;27.00;20.67;;;;;9.14;100.00;102021.09;5027868;28;45480;-73
2023/01/30 05:07:48;;;;;;;;;26.00;23.00;;;;;9.10;100.00;102022.47;5028397;28;46939;-73
2023/01/30 05:10:14;;;;;;;;;20.67;20.00;;;;;9.10;100.00;102013.38;5024383;28;45753;-74
2023/01/30 05:12:40;;;;;;;;;22.67;20.00;;;;;9.15;100.00;102028.28;4958190;28;1271277;-72
2023/01/30 05:15:06;;;;;;;;;21.33;20.00;;;;;9.21;100.00;102020.41;5008333;28;45402;-73
2023/01/30 05:17:33;;;;;;;;;21.00;17.67;;;;;9.07;100.00;101998.19;5008661;28;46582;-72
2023/01/30 05:19:58;;;;;;;;;17.67;17.33;;;;;9.29;100.00;102018.53;5011335;28;46883;-75
2023/01/30 05:22:24;;;;;;;;;24.00;19.33;;;;;9.26;100.00;102010.66;5004960;28;45323;-72
2023/01/30 05:24:50;;;;;;;;;25.33;20.33;;;;;9.30;100.00;102016.69;5007618;28;45354;-73
2023/01/30 05:27:16;;;;;;;;;24.67;20.33;;;;;9.27;100.00;102009.66;5013059;28;45777;-73
2023/01/30 05:29:41;;;;;;;;;30.00;26.67;;;;;9.26;100.00;102005.19;5006200;28;46362;-75
2023/01/30 05:32:07;;;;;;;;;22.33;19.33;;;;;9.29;100.00;102009.47;5002780;28;45399;-72
2023/01/30 05:34:32;;;;;;;;;50.33;40.00;;;;;9.25;100.00;101995.28;4994092;28;45798;-69
2023/01/30 05:36:58;;;;;;;;;29.67;26.00;;;;;9.29;100.00;102012.22;5004371;28;45492;-72
2023/01/30 05:39:23;;;;;;;;;32.67;28.00;;;;;9.28;100.00;102016.84;4999747;28;46324;-70
2023/01/30 05:41:48;;;;;;;;;25.67;21.33;;;;;9.31;100.00;102002.81;4999072;28;45437;-71
2023/01/30 05:44:14;;;;;;;;;20.00;18.33;;;;;9.29;100.00;101985.69;4992398;28;45474;-72
2023/01/30 05:46:40;;;;;;;;;21.67;18.33;;;;;9.34;100.00;101983.31;4993476;28;45696;-72
2023/01/30 05:49:06;;;;;;;;;27.33;21.67;;;;;9.36;100.00;101980.41;4993977;28;47043;-75
2023/01/30 05:51:32;;;;;;;;;26.33;23.33;;;;;9.35;100.00;101987.75;5009071;28;45436;-71
2023/01/30 05:53:58;;;;;;;;;22.67;18.33;;;;;9.40;100.00;101989.13;4983063;28;45688;-72
2023/01/30 05:56:23;;;;;;;;;21.00;17.00;;;;;9.41;100.00;101979.91;5008862;28;46040;-73
2023/01/30 05:58:54;;;;;;;;;18.33;17.67;;;;;9.42;100.00;101981.63;5009912;28;45972;-74
2023/01/30 06:01:20;;;;;;;;;22.00;18.33;;;;;9.43;100.00;101966.88;5003130;28;45508;-74
2023/01/30 06:03:46;;;;;;;;;21.33;21.33;;;;;9.28;100.00;101942.06;5000215;28;45878;-76
2023/01/30 06:06:12;;;;;;;;;19.67;19.33;;;;;9.36;100.00;101948.41;5007450;28;45797;-77
2023/01/30 06:08:38;;;;;;;;;27.33;22.33;;;;;9.52;100.00;101971.31;5002546;28;45645;-77
2023/01/30 06:11:07;;;;;;;;;18.67;17.67;;;;;9.57;100.00;101984.53;4992031;28;46147;-77
2023/01/30 06:13:33;;;;;;;;;27.33;20.67;;;;;9.58;100.00;101978.00;5021009;28;45743;-73
2023/01/30 06:15:59;;;;;;;;;28.00;25.00;;;;;9.54;100.00;101978.34;5009052;28;45746;-72
2023/01/30 06:18:28;;;;;;;;;17.67;17.67;;;;;9.68;100.00;101987.75;5019733;28;45614;-73
2023/01/30 06:20:53;;;;;;;;;22.67;21.67;;;;;9.76;100.00;101981.44;5019026;28;45354;-73
2023/01/30 06:23:20;;;;;;;;;20.33;19.00;;;;;9.84;100.00;101988.78;5003074;28;45743;-73
2023/01/30 06:25:47;;;;;;;;;18.00;17.67;;;;;9.84;100.00;101983.28;5023317;28;45744;-73
2023/01/30 06:28:14;;;;;;;;;20.33;16.00;;;;;9.83;100.00;101993.38;5018704;28;45909;-76
2023/01/30 06:30:39;;;;;;;;;23.67;19.00;;;;;9.82;100.00;101991.69;5029115;28;46144;-73
2023/01/30 06:33:06;;;;;;;;;18.33;16.67;;;;;9.92;100.00;102002.44;5019981;28;45726;-72
2023/01/30 06:35:31;;;;;;;;;19.67;17.00;;;;;9.92;100.00;102009.81;5014069;28;45568;-74
2023/01/30 06:37:57;;;;;;;;;17.33;15.67;;;;;9.85;100.00;101995.94;5025389;28;45811;-72
2023/01/30 06:40:22;;;;;;;;;20.33;17.33;;;;;9.85;100.00;102002.31;5013753;28;45725;-74
2023/01/30 06:42:48;;;;;;;;;23.67;19.00;;;;;9.87;100.00;102010.34;5013745;28;45639;-73
2023/01/30 06:45:16;;;;;;;;;26.00;22.67;;;;;9.80;100.00;102009.31;5012846;28;46182;-76
2023/01/30 06:47:50;;;;;;;;;14.67;14.00;;;;;9.76;100.00;102006.09;5025571;28;46217;-77
2023/01/30 06:50:17;;;;;;;;;23.33;15.00;;;;;9.70;100.00;102012.22;5005893;28;45350;-78
2023/01/30 06:52:47;;;;;;;;;18.33;16.67;;;;;9.66;100.00;102002.66;5014560;28;45529;-79
2023/01/30 06:55:15;;;;;;;;;20.33;16.33;;;;;9.63;100.00;102003.84;5018284;28;46362;-82
2023/01/30 06:57:42;;;;;;;;;16.33;15.00;;;;;9.65;100.00;102014.63;5035269;28;46419;-79
2023/01/30 07:00:13;;;;;;;;;19.67;16.00;;;;;9.58;100.00;101994.44;5025603;28;44860;-78
2023/01/30 07:02:38;;;;;;;;;19.67;18.33;;;;;9.64;100.00;102011.06;5015038;28;45364;-75
2023/01/30 07:05:06;;;;;;;;;18.00;16.00;;;;;9.63;100.00;102028.50;5032348;28;45395;-75
2023/01/30 07:07:32;;;;;;;;;18.33;17.67;;;;;9.55;100.00;102023.03;5019034;28;47305;-77
2023/01/30 07:09:58;;;;;;;;;27.33;20.33;;;;;9.56;100.00;102027.47;5036483;28;45535;-75
2023/01/30 07:12:25;;;;;;;;;18.00;15.67;;;;;9.70;100.00;102037.75;5014361;28;45423;-74
2023/01/30 07:14:51;;;;;;;;;23.33;16.33;;;;;9.67;100.00;102029.88;5032014;28;45465;-74
2023/01/30 07:17:18;;;;;;;;;24.67;19.67;;;;;9.63;100.00;102036.72;5026451;28;45717;-76
2023/01/30 07:19:44;;;;;;;;;20.00;19.00;;;;;9.66;100.00;102039.13;5036782;28;45685;-74
2023/01/30 07:22:09;;;;;;;;;16.00;14.00;;;;;9.70;100.00;102058.78;5030339;28;45671;-75
2023/01/30 07:24:35;;;;;;;;;17.33;15.33;;;;;9.66;100.00;102055.56;5036211;28;45678;-74
2023/01/30 07:27:01;;;;;;;;;18.00;16.00;;;;;9.68;100.00;102060.84;5030248;28;46061;-74
2023/01/30 07:29:26;;;;;;;;;13.33;13.33;;;;;9.67;100.00;102059.13;5022782;28;45400;-73
2023/01/30 07:31:52;;;;;;;;;17.00;14.00;;;;;9.64;100.00;102057.63;5022221;28;45405;-75
2023/01/30 07:34:18;;;;;;;;;18.00;15.00;;;;;9.60;100.00;102072.66;5022294;28;45724;-74
2023/01/30 07:36:43;;;;;;;;;19.00;15.33;;;;;9.60;100.00;102074.56;5016091;28;46674;-73
2023/01/30 07:39:08;;;;;;;;;18.00;17.33;;;;;9.53;100.00;102074.38;5033096;28;45489;-76
2023/01/30 07:41:35;;;;;;;;;16.00;13.33;;;;;9.51;100.00;102073.69;5028077;28;45741;-72
2023/01/30 07:44:01;;;;;;;;;16.67;14.67;;;;;9.46;100.00;102067.84;5029289;28;45570;-74
2023/01/30 07:46:33;;;;;;;;;23.33;18.00;;;;;9.44;100.00;102072.66;5034925;28;45429;-75
2023/01/30 07:49:02;;;;;;;;;18.33;15.00;;;;;9.47;100.00;102061.34;5039855;28;45436;-80
2023/01/30 07:51:27;;;;;;;;;21.33;15.67;;;;;9.47;100.00;102064.94;5038783;28;45332;-76
2023/01/30 07:53:53;;;;;;;;;16.00;14.67;;;;;9.46;100.00;102056.91;5024729;28;45540;-73
2023/01/30 07:56:20;;;;;;;;;21.00;19.33;;;;;9.53;100.00;102063.41;5017980;28;45349;-75
2023/01/30 07:58:46;;;;;;;;;18.67;16.33;;;;;9.35;100.00;102037.03;5034042;28;45420;-73
2023/01/30 08:01:12;;;;;;;;;16.67;16.00;;;;;9.52;100.00;102073.53;5008817;28;45989;-74
2023/01/30 08:03:37;;;;;;;;;17.33;14.67;;;;;9.52;100.00;102067.16;5019530;28;45941;-75
2023/01/30 08:06:02;;;;;;;;;19.33;17.00;;;;;9.51;100.00;102069.06;5030881;28;45424;-74
2023/01/30 08:08:28;;;;;;;;;16.00;15.00;;;;;9.53;100.00;102072.47;5021801;28;45632;-73
2023/01/30 08:10:53;;;;;;;;;18.33;16.67;;;;;9.60;100.00;102058.97;5028756;28;45400;-74
2023/01/30 08:13:19;;;;;;;;;23.00;18.00;;;;;9.62;100.00;102056.91;5038497;28;45729;-74
2023/01/30 08:15:44;;;;;;;;;19.00;17.67;;;;;9.69;100.00;102068.91;5025419;28;45643;-75
2023/01/30 08:18:10;;;;;;;;;23.00;19.00;;;;;9.72;100.00;102074.03;5033109;28;45597;-76
2023/01/30 08:20:36;;;;;;;;;19.00;17.00;;;;;9.68;100.00;102069.06;5015386;28;45434;-76
2023/01/30 08:23:01;;;;;;;;;14.33;13.00;;;;;9.74;100.00;102076.59;5025407;28;45460;-75
2023/01/30 08:25:28;;;;;;;;;17.67;17.67;;;;;9.76;100.00;102082.78;5026811;28;45673;-75
2023/01/30 08:27:53;;;;;;;;;18.00;16.33;;;;;9.71;100.00;102083.31;5033214;28;45712;-74
2023/01/30 08:30:20;;;;;;;;;20.33;16.00;;;;;9.75;100.00;102082.97;5034915;28;45615;-75
2023/01/30 08:32:45;;;;;;;;;22.67;15.00;;;;;9.83;100.00;102085.69;5039502;28;45339;-73
2023/01/30 08:35:11;;;;;;;;;21.67;20.67;;;;;9.85;100.00;102075.41;5033471;28;45815;-72
2023/01/30 08:37:41;;;;;;;;;19.00;17.00;;;;;9.87;100.00;102081.59;5010346;28;45355;-74
2023/01/30 08:40:07;;;;;;;;;16.33;16.00;;;;;9.88;100.00;102091.53;5031301;28;45656;-74
2023/01/30 08:42:33;;;;;;;;;17.33;17.00;;;;;9.93;100.00;102089.13;5036518;28;45775;-73
2023/01/30 08:44:58;;;;;;;;;22.00;18.67;;;;;9.96;100.00;102082.44;5022981;28;48076;-75
2023/01/30 08:47:24;;;;;;;;;20.00;19.00;;;;;9.96;100.00;102091.50;5040596;28;45380;-72
2023/01/30 08:49:51;;;;;;;;;18.33;16.00;;;;;9.99;100.00;102088.44;5031921;28;45978;-73
2023/01/30 08:52:20;;;;;;;;;18.00;17.00;;;;;10.10;100.00;102089.13;5025720;28;45754;-73
2023/01/30 08:54:46;;;;;;;;;18.00;18.00;;;;;10.15;100.00;102097.66;5038414;28;46595;-74
2023/01/30 08:57:13;;;;;;;;;18.00;17.00;;;;;10.12;100.00;102089.78;5037650;28;45978;-74
2023/01/30 08:59:38;;;;;;;;;19.67;15.67;;;;;10.10;100.00;102097.34;5035429;28;45334;-74
2023/01/30 09:02:04;;;;;;;;;17.33;14.67;;;;;10.16;100.00;102099.38;5035680;28;45530;-75
2023/01/30 09:04:30;;;;;;;;;20.00;15.33;;;;;10.18;100.00;102106.41;5024960;28;45867;-76
2023/01/30 09:06:55;;;;;;;;;19.67;16.00;;;;;10.24;100.00;102108.47;5020832;28;45473;-74
2023/01/30 09:09:21;;;;;;;;;19.00;14.00;;;;;10.26;100.00;102100.06;5033670;28;45469;-73
2023/01/30 09:11:49;;;;;;;;;15.00;14.33;;;;;10.19;100.00;102088.06;5028757;28;45512;-73
2023/01/30 09:14:18;;;;;;;;;15.67;15.67;;;;;10.27;100.00;102104.53;5013528;28;48268;-73
2023/01/30 09:16:54;;;;;;;;;15.33;14.33;;;;;10.23;100.00;102104.00;5024035;28;45519;-75
2023/01/30 09:19:20;;;;;;;;;19.33;13.67;;;;;10.34;100.00;102099.22;5031373;28;45453;-77
2023/01/30 09:21:48;;;;;;;;;20.00;18.33;;;;;10.29;100.00;102099.72;5037453;28;45260;-76
2023/01/30 09:24:13;;;;;;;;;18.33;15.33;;;;;10.28;100.00;102103.47;5038155;28;45701;-75
2023/01/30 09:26:43;;;;;;;;;19.67;17.33;;;;;10.21;100.00;102094.25;5037834;28;45440;-74
2023/01/30 09:29:10;;;;;;;;;20.00;19.67;;;;;10.30;100.00;102120.63;5030058;28;45743;-76
2023/01/30 09:31:35;;;;;;;;;16.33;16.33;;;;;10.31;100.00;102118.72;5036805;28;45831;-75
2023/01/30 09:34:00;;;;;;;;;15.67;15.33;;;;;10.29;100.00;102124.38;5035997;28;45638;-75
2023/01/30 09:36:26;;;;;;;;;22.00;15.33;;;;;10.38;100.00;102122.53;5022122;28;45585;-74
2023/01/30 09:38:51;;;;;;;;;24.67;20.33;;;;;10.41;100.00;102106.56;5013307;28;45601;-73
2023/01/30 09:41:39;;;;;;;;;19.00;16.33;;;;;10.53;100.00;102108.97;5036098;28;45611;-74
2023/01/30 09:44:28;;;;;;;;;18.33;17.33;;;;;10.55;100.00;102107.75;5031043;28;45373;-75
2023/01/30 09:47:18;;;;;;;;;23.00;17.67;;;;;10.56;100.00;102114.09;5036976;28;45432;-75
2023/01/30 09:49:56;;;;;;;;;24.67;20.00;;;;;10.58;100.00;102109.28;5022622;28;45551;-75
2023/01/30 09:52:36;;;;;;;;;22.00;17.67;;;;;10.48;100.00;102120.47;5023422;28;45455;-75
2023/01/30 09:55:22;;;;;;;;;18.00;16.33;;;;;10.53;100.00;102125.41;5033882;28;45312;-76
2023/01/30 09:57:50;;;;;;;;;17.00;16.00;;;;;10.56;100.00;102123.16;5036097;28;45439;-75
2023/01/30 10:00:33;;;;;;;;;21.67;18.00;;;;;10.58;100.00;102120.25;5029450;28;45355;-77
2023/01/30 10:03:12;;;;;;;;;21.67;19.00;;;;;10.63;100.00;102126.09;5023250;28;46178;-77
2023/01/30 10:05:57;;;;;;;;;21.00;17.00;;;;;10.57;100.00;102127.63;5033645;28;45338;-74
2023/01/30 10:08:50;;;;;;;;;22.00;15.33;;;;;10.60;100.00;102137.41;5028218;28;45447;-74
2023/01/30 10:11:39;;;;;;;;;20.00;16.33;;;;;10.71;100.00;102133.44;5033533;28;45350;-75
2023/01/30 10:14:29;;;;;;;;;18.00;17.33;;;;;10.82;100.00;102141.28;5037350;28;45282;-79
2023/01/30 10:17:01;;;;;;;;;20.00;18.67;;;;;11.09;100.00;102130.88;5038676;28;46862;-77
2023/01/30 10:19:26;;;;;;;;;17.33;17.00;;;;;11.16;100.00;102128.31;5037203;28;45342;-78
2023/01/30 10:22:00;;;;;;;;;23.00;19.33;;;;;11.29;100.00;102136.81;5020462;28;45373;-80
2023/01/30 10:24:41;;;;;;;;;14.67;14.33;;;;;11.47;100.00;102133.81;5028817;28;45821;-80
2023/01/30 10:27:16;;;;;;;;;18.33;16.33;;;;;11.53;100.00;102132.22;5020584;28;46991;-78
2023/01/30 10:29:47;;;;;;;;;19.00;19.00;;;;;11.63;100.00;102143.81;5019105;28;45466;-72
2023/01/30 10:32:25;;;;;;;;;18.00;17.33;;;;;11.75;100.00;102125.91;5020137;28;45947;-72
2023/01/30 10:34:54;;;;;;;;;17.67;16.33;;;;;11.80;100.00;102133.59;5017237;28;46998;-73
2023/01/30 10:37:32;;;;;;;;;21.67;18.00;;;;;11.76;100.00;102116.59;5012866;28;48280;-72
2023/01/30 10:40:21;;;;;;;;;19.67;16.67;;;;;11.90;100.00;102122.34;5014059;28;45646;-75
2023/01/30 10:42:59;;;;;;;;;21.33;20.33;;;;;12.00;100.00;102104.56;5033334;28;45677;-71
2023/01/30 10:46:09;;;;;;;;;18.67;17.67;;;;;12.12;100.00;102110.50;5030036;28;45504;-72
2023/01/30 10:49:05;;;;;;;;;17.00;16.33;;;;;12.15;100.00;102109.28;5004984;28;45589;-73
2023/01/30 10:52:29;;;;;;;;;20.00;17.33;;;;;12.34;100.00;102107.91;5031170;28;45750;-72
2023/01/30 10:54:57;;;;;;;;;18.00;15.00;;;;;12.58;100.00;102116.94;4999855;28;45909;-73
2023/01/30 10:57:48;;;;;;;;;15.33;14.33;;;;;12.60;100.00;102114.84;5028831;28;45511;-74
2023/01/30 11:00:36;;;;;;;;;24.00;18.00;;;;;12.67;100.00;102107.56;5029585;28;46156;-73
2023/01/30 11:03:20;;;;;;;;;15.00;13.33;;;;;12.69;100.00;102113.72;5028038;28;45343;-74
2023/01/30 11:05:58;;;;;;;;;17.00;12.00;;;;;12.52;100.00;102110.28;5019769;28;45416;-73
2023/01/30 11:08:26;;;;;;;;;12.67;9.33;;;;;12.51;100.00;102111.31;5010274;28;46084;-73
2023/01/30 11:10:53;;;;;;;;;14.33;12.33;;;;;12.40;100.00;102118.16;5027294;28;45414;-73
2023/01/30 11:13:20;;;;;;;;;15.33;11.67;;;;;12.38;100.00;102113.88;5029281;28;45370;-74
2023/01/30 11:15:51;;;;;;;;;11.00;11.00;;;;;12.42;100.00;102101.44;5029033;28;45393;-73
2023/01/30 11:18:25;;;;;;;;;8.67;8.00;;;;;12.54;100.00;102106.31;5031741;28;45607;-73
2023/01/30 11:21:27;;;;;;;;;10.00;8.00;;;;;12.61;100.00;102116.56;5016117;28;47024;-73
2023/01/30 11:23:53;;;;;;;;;10.33;9.67;;;;;12.60;100.00;102101.94;5024774;28;45731;-73